sensor_id;sensor_type;location;lat;lon;timestamp;pressure;altitude;pressure_sealevel;temperature;humidity
56992;BME280;42885;49.754;18.636;2023-04-01T00:01:47;96614.86;;;14.14;83.23
56992;BME280;42885;49.754;18.636;2023-04-01T00:04:18;96617.63;;;14.04;83.63
56992;BME280;42885;49.754;18.636;2023-04-01T00:06:50;96601.95;;;13.94;84.46
56992;BME280;42885;49.754;18.636;2023-04-01T00:09:21;96596.78;;;14.15;82.43
56992;BME280;42885;49.754;18.636;2023-04-01T00:11:52;96603.11;;;14.26;80.91
56992;BME280;42885;49.754;18.636;2023-04-01T00:14:23;96605.27;;;14.35;80.46
56992;BME280;42885;49.754;18.636;2023-04-01T00:16:54;96605.11;;;14.33;80.21
56992;BME280;42885;49.754;18.636;2023-04-01T00:19:25;96605.48;;;14.42;79.79
56992;BME280;42885;49.754;18.636;2023-04-01T00:21:56;96611.22;;;14.37;80.20
56992;BME280;42885;49.754;18.636;2023-04-01T00:24:26;96604.82;;;14.48;79.66
56992;BME280;42885;49.754;18.636;2023-04-01T00:26:57;96603.17;;;14.08;82.23
56992;BME280;42885;49.754;18.636;2023-04-01T00:29:28;96600.59;;;13.90;83.96
56992;BME280;42885;49.754;18.636;2023-04-01T00:32:00;96605.23;;;13.92;84.27
56992;BME280;42885;49.754;18.636;2023-04-01T00:34:31;96603.92;;;13.96;84.34
56992;BME280;42885;49.754;18.636;2023-04-01T00:37:02;96598.28;;;14.17;83.44
56992;BME280;42885;49.754;18.636;2023-04-01T00:39:34;96604.09;;;14.25;82.18
56992;BME280;42885;49.754;18.636;2023-04-01T00:42:05;96606.55;;;13.92;84.37
56992;BME280;42885;49.754;18.636;2023-04-01T00:44:37;96601.75;;;13.87;84.74
56992;BME280;42885;49.754;18.636;2023-04-01T00:47:09;96599.80;;;13.67;86.68
56992;BME280;42885;49.754;18.636;2023-04-01T00:49:42;96595.59;;;13.74;87.26
56992;BME280;42885;49.754;18.636;2023-04-01T00:52:15;96588.83;;;13.72;86.95
56992;BME280;42885;49.754;18.636;2023-04-01T00:54:49;96592.45;;;13.75;87.23
56992;BME280;42885;49.754;18.636;2023-04-01T00:57:33;96599.80;;;13.67;87.94
56992;BME280;42885;49.754;18.636;2023-04-01T00:59:58;96592.55;;;14.22;84.47
56992;BME280;42885;49.754;18.636;2023-04-01T01:02:30;96598.09;;;14.11;85.47
56992;BME280;42885;49.754;18.636;2023-04-01T01:05:02;96600.18;;;14.34;83.26
56992;BME280;42885;49.754;18.636;2023-04-01T01:07:40;96593.02;;;14.17;83.76
56992;BME280;42885;49.754;18.636;2023-04-01T01:10:16;96600.16;;;13.95;85.23
56992;BME280;42885;49.754;18.636;2023-04-01T01:13:02;96586.11;;;14.12;84.94
56992;BME280;42885;49.754;18.636;2023-04-01T01:15:40;96590.09;;;14.25;84.20
56992;BME280;42885;49.754;18.636;2023-04-01T01:27:08;96579.13;;;13.99;85.76
56992;BME280;42885;49.754;18.636;2023-04-01T01:29:59;96593.73;;;13.93;86.94
56992;BME280;42885;49.754;18.636;2023-04-01T01:32:54;96581.66;;;14.13;85.21
56992;BME280;42885;49.754;18.636;2023-04-01T01:35:26;96589.97;;;14.00;86.36
56992;BME280;42885;49.754;18.636;2023-04-01T01:38:02;96584.22;;;13.70;88.55
56992;BME280;42885;49.754;18.636;2023-04-01T01:40:34;96592.86;;;13.62;89.92
56992;BME280;42885;49.754;18.636;2023-04-01T01:43:09;96593.90;;;13.69;89.11
56992;BME280;42885;49.754;18.636;2023-04-01T01:45:43;96595.28;;;13.82;88.61
56992;BME280;42885;49.754;18.636;2023-04-01T01:48:15;96595.07;;;13.71;88.03
56992;BME280;42885;49.754;18.636;2023-04-01T01:50:48;96589.88;;;13.83;87.13
56992;BME280;42885;49.754;18.636;2023-04-01T01:53:20;96600.05;;;13.78;87.35
56992;BME280;42885;49.754;18.636;2023-04-01T01:55:51;96602.30;;;13.73;88.09
56992;BME280;42885;49.754;18.636;2023-04-01T01:58:42;96603.81;;;13.75;88.21
56992;BME280;42885;49.754;18.636;2023-04-01T02:01:17;96600.62;;;13.68;89.10
56992;BME280;42885;49.754;18.636;2023-04-01T02:03:50;96606.44;;;13.75;88.90
56992;BME280;42885;49.754;18.636;2023-04-01T02:06:25;96607.11;;;13.55;89.77
56992;BME280;42885;49.754;18.636;2023-04-01T02:09:02;96610.45;;;13.61;89.26
56992;BME280;42885;49.754;18.636;2023-04-01T02:14:22;96617.81;;;13.84;88.19
56992;BME280;42885;49.754;18.636;2023-04-01T02:17:09;96611.13;;;13.68;88.77
56992;BME280;42885;49.754;18.636;2023-04-01T02:19:48;96610.28;;;13.63;90.00
56992;BME280;42885;49.754;18.636;2023-04-01T02:22:28;96613.55;;;13.61;89.91
56992;BME280;42885;49.754;18.636;2023-04-01T02:25:06;96611.46;;;13.69;90.04
56992;BME280;42885;49.754;18.636;2023-04-01T02:27:38;96614.59;;;13.68;89.40
56992;BME280;42885;49.754;18.636;2023-04-01T02:30:09;96608.61;;;13.58;89.81
56992;BME280;42885;49.754;18.636;2023-04-01T02:32:41;96601.39;;;13.60;90.28
56992;BME280;42885;49.754;18.636;2023-04-01T02:35:14;96601.74;;;13.65;89.77
56992;BME280;42885;49.754;18.636;2023-04-01T02:37:48;96610.32;;;13.67;89.38
56992;BME280;42885;49.754;18.636;2023-04-01T02:40:19;96611.64;;;13.67;89.24
56992;BME280;42885;49.754;18.636;2023-04-01T02:42:50;96614.84;;;13.79;88.59
56992;BME280;42885;49.754;18.636;2023-04-01T02:45:22;96613.02;;;13.80;87.68
56992;BME280;42885;49.754;18.636;2023-04-01T02:47:52;96610.63;;;13.86;87.11
56992;BME280;42885;49.754;18.636;2023-04-01T02:50:23;96610.06;;;13.79;87.58
56992;BME280;42885;49.754;18.636;2023-04-01T02:52:55;96610.83;;;13.97;86.48
56992;BME280;42885;49.754;18.636;2023-04-01T02:55:25;96610.83;;;13.97;86.48
56992;BME280;42885;49.754;18.636;2023-04-01T02:57:56;96619.12;;;13.80;88.44
56992;BME280;42885;49.754;18.636;2023-04-01T03:00:27;96617.23;;;13.68;88.69
56992;BME280;42885;49.754;18.636;2023-04-01T03:02:59;96614.45;;;13.70;89.05
56992;BME280;42885;49.754;18.636;2023-04-01T03:05:30;96613.89;;;13.62;89.78
56992;BME280;42885;49.754;18.636;2023-04-01T03:08:01;96617.62;;;13.78;88.31
56992;BME280;42885;49.754;18.636;2023-04-01T03:10:32;96620.12;;;13.61;89.44
56992;BME280;42885;49.754;18.636;2023-04-01T03:13:03;96614.27;;;13.67;89.76
56992;BME280;42885;49.754;18.636;2023-04-01T03:15:34;96623.22;;;13.20;92.89
56992;BME280;42885;49.754;18.636;2023-04-01T03:18:05;96622.71;;;13.20;93.41
56992;BME280;42885;49.754;18.636;2023-04-01T03:20:36;96627.33;;;13.41;92.27
56992;BME280;42885;49.754;18.636;2023-04-01T03:23:08;96626.09;;;13.45;92.61
56992;BME280;42885;49.754;18.636;2023-04-01T03:25:39;96630.53;;;13.48;91.81
56992;BME280;42885;49.754;18.636;2023-04-01T03:28:10;96620.75;;;13.41;92.47
56992;BME280;42885;49.754;18.636;2023-04-01T03:30:42;96626.01;;;13.22;93.56
56992;BME280;42885;49.754;18.636;2023-04-01T03:33:13;96623.64;;;13.33;92.72
56992;BME280;42885;49.754;18.636;2023-04-01T03:35:44;96627.09;;;13.48;91.83
56992;BME280;42885;49.754;18.636;2023-04-01T03:38:15;96623.24;;;13.42;92.01
56992;BME280;42885;49.754;18.636;2023-04-01T03:40:46;96624.94;;;13.47;91.75
56992;BME280;42885;49.754;18.636;2023-04-01T03:43:17;96625.22;;;13.26;93.05
56992;BME280;42885;49.754;18.636;2023-04-01T03:45:50;96627.25;;;13.32;92.55
56992;BME280;42885;49.754;18.636;2023-04-01T03:48:22;96630.09;;;13.39;92.30
56992;BME280;42885;49.754;18.636;2023-04-01T03:50:53;96631.33;;;13.31;93.17
56992;BME280;42885;49.754;18.636;2023-04-01T03:53:24;96628.25;;;13.35;92.03
56992;BME280;42885;49.754;18.636;2023-04-01T03:55:56;96626.67;;;13.43;92.07
56992;BME280;42885;49.754;18.636;2023-04-01T03:58:27;96631.72;;;13.36;92.39
56992;BME280;42885;49.754;18.636;2023-04-01T04:00:59;96622.64;;;13.30;92.83
56992;BME280;42885;49.754;18.636;2023-04-01T04:03:30;96626.46;;;13.18;93.70
56992;BME280;42885;49.754;18.636;2023-04-01T04:06:03;96625.61;;;13.31;92.95
56992;BME280;42885;49.754;18.636;2023-04-01T04:08:34;96625.23;;;13.08;94.78
56992;BME280;42885;49.754;18.636;2023-04-01T04:11:08;96632.89;;;13.19;94.66
56992;BME280;42885;49.754;18.636;2023-04-01T04:13:41;96640.20;;;13.30;93.27
56992;BME280;42885;49.754;18.636;2023-04-01T04:16:15;96640.09;;;13.49;91.88
56992;BME280;42885;49.754;18.636;2023-04-01T04:18:47;96635.78;;;13.30;91.78
56992;BME280;42885;49.754;18.636;2023-04-01T04:21:18;96637.63;;;13.34;91.43
56992;BME280;42885;49.754;18.636;2023-04-01T04:23:49;96629.02;;;13.28;92.69
56992;BME280;42885;49.754;18.636;2023-04-01T04:26:21;96631.57;;;13.19;93.36
56992;BME280;42885;49.754;18.636;2023-04-01T04:28:57;96635.78;;;13.30;92.97
56992;BME280;42885;49.754;18.636;2023-04-01T04:31:28;96640.84;;;13.28;92.84
56992;BME280;42885;49.754;18.636;2023-04-01T04:34:00;96640.13;;;13.40;92.33
56992;BME280;42885;49.754;18.636;2023-04-01T04:36:33;96633.23;;;13.39;92.18
56992;BME280;42885;49.754;18.636;2023-04-01T04:39:04;96635.33;;;13.35;91.80
56992;BME280;42885;49.754;18.636;2023-04-01T04:41:37;96635.68;;;13.40;91.78
56992;BME280;42885;49.754;18.636;2023-04-01T04:44:10;96628.41;;;13.48;90.86
56992;BME280;42885;49.754;18.636;2023-04-01T04:46:41;96634.09;;;13.43;90.94
56992;BME280;42885;49.754;18.636;2023-04-01T04:49:14;96634.05;;;13.53;90.55
56992;BME280;42885;49.754;18.636;2023-04-01T04:51:45;96632.72;;;13.39;91.13
56992;BME280;42885;49.754;18.636;2023-04-01T04:54:17;96634.47;;;13.48;91.04
56992;BME280;42885;49.754;18.636;2023-04-01T04:56:53;96637.31;;;13.37;91.55
56992;BME280;42885;49.754;18.636;2023-04-01T04:59:26;96633.68;;;13.52;90.21
56992;BME280;42885;49.754;18.636;2023-04-01T05:02:04;96639.98;;;13.41;91.23
56992;BME280;42885;49.754;18.636;2023-04-01T05:04:36;96636.66;;;13.39;91.35
56992;BME280;42885;49.754;18.636;2023-04-01T05:07:09;96631.37;;;13.49;90.59
56992;BME280;42885;49.754;18.636;2023-04-01T05:09:40;96637.27;;;13.47;90.49
56992;BME280;42885;49.754;18.636;2023-04-01T05:12:12;96636.66;;;13.39;90.58
56992;BME280;42885;49.754;18.636;2023-04-01T05:14:45;96638.67;;;13.41;90.27
56992;BME280;42885;49.754;18.636;2023-04-01T05:17:16;96630.07;;;13.35;90.42
56992;BME280;42885;49.754;18.636;2023-04-01T05:19:47;96629.42;;;13.37;90.53
56992;BME280;42885;49.754;18.636;2023-04-01T05:22:18;96632.20;;;13.35;90.87
56992;BME280;42885;49.754;18.636;2023-04-01T05:24:50;96637.77;;;13.32;91.34
56992;BME280;42885;49.754;18.636;2023-04-01T05:27:21;96633.52;;;13.49;90.18
56992;BME280;42885;49.754;18.636;2023-04-01T05:29:52;96632.37;;;13.34;91.19
56992;BME280;42885;49.754;18.636;2023-04-01T05:32:33;96636.94;;;13.46;89.89
56992;BME280;42885;49.754;18.636;2023-04-01T05:35:05;96634.70;;;13.55;89.59
56992;BME280;42885;49.754;18.636;2023-04-01T05:37:36;96640.22;;;13.66;88.19
56992;BME280;42885;49.754;18.636;2023-04-01T05:40:08;96641.15;;;13.83;87.02
56992;BME280;42885;49.754;18.636;2023-04-01T05:42:39;96637.72;;;13.87;86.87
56992;BME280;42885;49.754;18.636;2023-04-01T05:45:10;96641.53;;;13.93;86.65
56992;BME280;42885;49.754;18.636;2023-04-01T05:47:59;96637.27;;;13.92;86.14
56992;BME280;42885;49.754;18.636;2023-04-01T05:50:32;96645.39;;;14.02;86.02
56992;BME280;42885;49.754;18.636;2023-04-01T05:53:03;96645.86;;;13.98;85.56
56992;BME280;42885;49.754;18.636;2023-04-01T05:55:38;96646.93;;;13.87;86.44
56992;BME280;42885;49.754;18.636;2023-04-01T05:58:09;96642.97;;;13.83;85.87
56992;BME280;42885;49.754;18.636;2023-04-01T06:00:41;96641.80;;;13.81;86.22
56992;BME280;42885;49.754;18.636;2023-04-01T06:03:14;96640.27;;;13.97;86.47
56992;BME280;42885;49.754;18.636;2023-04-01T06:05:45;96636.14;;;14.25;82.87
56992;BME280;42885;49.754;18.636;2023-04-01T06:08:17;96645.39;;;14.02;84.33
56992;BME280;42885;49.754;18.636;2023-04-01T06:11:11;96649.05;;;14.10;84.09
56992;BME280;42885;49.754;18.636;2023-04-01T06:19:42;96649.44;;;14.23;83.88
56992;BME280;42885;49.754;18.636;2023-04-01T06:30:57;96648.13;;;14.23;82.81
56992;BME280;42885;49.754;18.636;2023-04-01T06:33:35;96650.76;;;14.23;82.83
56992;BME280;42885;49.754;18.636;2023-04-01T06:36:13;96649.95;;;14.27;81.17
56992;BME280;42885;49.754;18.636;2023-04-01T06:44:13;96655.16;;;14.41;81.08
56992;BME280;42885;49.754;18.636;2023-04-01T06:50:29;96659.72;;;14.35;81.21
56992;BME280;42885;49.754;18.636;2023-04-01T06:56:25;96655.16;;;14.45;80.30
56992;BME280;42885;49.754;18.636;2023-04-01T06:59:08;96657.46;;;14.48;80.46
56992;BME280;42885;49.754;18.636;2023-04-01T07:01:42;96654.66;;;14.15;82.03
56992;BME280;42885;49.754;18.636;2023-04-01T07:04:17;96663.28;;;14.60;80.83
56992;BME280;42885;49.754;18.636;2023-04-01T07:07:01;96658.19;;;14.63;79.27
56992;BME280;42885;49.754;18.636;2023-04-01T07:09:35;96667.83;;;14.76;78.75
56992;BME280;42885;49.754;18.636;2023-04-01T07:12:46;96669.36;;;14.87;78.06
56992;BME280;42885;49.754;18.636;2023-04-01T07:15:18;96671.72;;;14.68;77.33
56992;BME280;42885;49.754;18.636;2023-04-01T07:18:03;96665.14;;;14.68;78.66
56992;BME280;42885;49.754;18.636;2023-04-01T07:20:32;96663.16;;;14.70;79.11
56992;BME280;42885;49.754;18.636;2023-04-01T07:23:26;96665.08;;;14.90;78.40
56992;BME280;42885;49.754;18.636;2023-04-01T07:26:04;96667.42;;;15.10;77.64
56992;BME280;42885;49.754;18.636;2023-04-01T07:28:35;96667.83;;;15.36;74.89
56992;BME280;42885;49.754;18.636;2023-04-01T07:34:00;96677.88;;;15.40;74.52
56992;BME280;42885;49.754;18.636;2023-04-01T07:45:38;96676.59;;;15.65;74.73
56992;BME280;42885;49.754;18.636;2023-04-01T07:48:26;96669.66;;;15.60;73.18
56992;BME280;42885;49.754;18.636;2023-04-01T07:51:02;96672.94;;;15.62;74.13
56992;BME280;42885;49.754;18.636;2023-04-01T07:54:15;96678.17;;;15.29;74.91
56992;BME280;42885;49.754;18.636;2023-04-01T07:59:45;96684.61;;;15.31;76.59
56992;BME280;42885;49.754;18.636;2023-04-01T08:02:40;96690.61;;;14.94;77.54
56992;BME280;42885;49.754;18.636;2023-04-01T08:05:33;96686.73;;;15.31;77.52
56992;BME280;42885;49.754;18.636;2023-04-01T08:08:07;96692.19;;;15.30;77.88
56992;BME280;42885;49.754;18.636;2023-04-01T08:11:16;96690.55;;;15.41;77.77
56992;BME280;42885;49.754;18.636;2023-04-01T08:14:28;96696.98;;;15.55;75.40
56992;BME280;42885;49.754;18.636;2023-04-01T08:17:22;96688.44;;;15.49;75.88
56992;BME280;42885;49.754;18.636;2023-04-01T08:25:51;96696.98;;;15.47;80.02
56992;BME280;42885;49.754;18.636;2023-04-01T08:29:02;96693.37;;;15.73;76.38
56992;BME280;42885;49.754;18.636;2023-04-01T08:31:58;96698.97;;;15.40;78.99
56992;BME280;42885;49.754;18.636;2023-04-01T08:34:39;96697.69;;;15.82;79.42
56992;BME280;42885;49.754;18.636;2023-04-01T08:37:25;96699.50;;;15.86;77.21
56992;BME280;42885;49.754;18.636;2023-04-01T08:39:58;96705.61;;;16.23;75.67
56992;BME280;42885;49.754;18.636;2023-04-01T08:45:32;96697.31;;;16.31;74.66
56992;BME280;42885;49.754;18.636;2023-04-01T08:56:42;96695.06;;;15.94;75.51
56992;BME280;42885;49.754;18.636;2023-04-01T09:02:23;96695.80;;;16.49;74.93
56992;BME280;42885;49.754;18.636;2023-04-01T09:05:05;96697.84;;;15.80;78.49
56992;BME280;42885;49.754;18.636;2023-04-01T09:17:09;96708.58;;;15.95;79.96
56992;BME280;42885;49.754;18.636;2023-04-01T09:22:46;96711.16;;;16.45;81.97
56992;BME280;42885;49.754;18.636;2023-04-01T09:28:20;96709.73;;;16.05;83.94
56992;BME280;42885;49.754;18.636;2023-04-01T09:31:09;96714.97;;;16.38;84.03
56992;BME280;42885;49.754;18.636;2023-04-01T09:36:55;96713.30;;;17.06;79.81
56992;BME280;42885;49.754;18.636;2023-04-01T09:42:56;96717.72;;;17.14;77.91
56992;BME280;42885;49.754;18.636;2023-04-01T09:45:53;96721.60;;;17.58;77.32
56992;BME280;42885;49.754;18.636;2023-04-01T09:48:51;96718.84;;;17.75;76.81
56992;BME280;42885;49.754;18.636;2023-04-01T09:51:27;96721.70;;;17.69;74.48
56992;BME280;42885;49.754;18.636;2023-04-01T09:57:11;96707.87;;;17.82;71.50
56992;BME280;42885;49.754;18.636;2023-04-01T10:03:23;96722.64;;;17.17;72.94
56992;BME280;42885;49.754;18.636;2023-04-01T10:15:27;96733.33;;;16.84;80.92
56992;BME280;42885;49.754;18.636;2023-04-01T10:18:36;96728.59;;;17.47;74.29
56992;BME280;42885;49.754;18.636;2023-04-01T10:21:22;96738.37;;;17.42;74.22
56992;BME280;42885;49.754;18.636;2023-04-01T10:32:32;96732.02;;;17.79;67.66
56992;BME280;42885;49.754;18.636;2023-04-01T10:35:14;96745.03;;;17.66;70.85
56992;BME280;42885;49.754;18.636;2023-04-01T11:14:24;96743.02;;;17.00;86.28
56992;BME280;42885;49.754;18.636;2023-04-01T11:20:22;96744.53;;;16.26;88.85
56992;BME280;42885;49.754;18.636;2023-04-01T11:23:15;96745.68;;;16.35;88.67
56992;BME280;42885;49.754;18.636;2023-04-01T11:29:14;96743.20;;;16.34;89.92
56992;BME280;42885;49.754;18.636;2023-04-01T11:31:49;96748.37;;;14.87;100.00
56992;BME280;42885;49.754;18.636;2023-04-01T11:40:02;96736.91;;;15.85;90.30
56992;BME280;42885;49.754;18.636;2023-04-01T11:42:53;96736.42;;;15.90;93.98
56992;BME280;42885;49.754;18.636;2023-04-01T11:45:42;96737.12;;;16.04;91.11
56992;BME280;42885;49.754;18.636;2023-04-01T12:02:29;96740.73;;;15.99;86.63
56992;BME280;42885;49.754;18.636;2023-04-01T12:08:06;96738.56;;;15.86;87.34
56992;BME280;42885;49.754;18.636;2023-04-01T12:10:53;96737.55;;;15.71;89.71
56992;BME280;42885;49.754;18.636;2023-04-01T12:13:29;96744.44;;;15.43;89.40
56992;BME280;42885;49.754;18.636;2023-04-01T12:16:19;96745.64;;;15.61;88.50
56992;BME280;42885;49.754;18.636;2023-04-01T12:24:45;96763.47;;;15.20;98.71
56992;BME280;42885;49.754;18.636;2023-04-01T12:30:17;96766.19;;;15.02;100.00
56992;BME280;42885;49.754;18.636;2023-04-01T12:36:07;96765.48;;;15.30;100.00
56992;BME280;42885;49.754;18.636;2023-04-01T12:44:37;96757.24;;;15.25;100.00
56992;BME280;42885;49.754;18.636;2023-04-01T12:49:54;96756.33;;;15.63;96.50
56992;BME280;42885;49.754;18.636;2023-04-01T12:55:26;96758.97;;;15.63;92.85
56992;BME280;42885;49.754;18.636;2023-04-01T13:15:12;96746.67;;;16.22;79.95
56992;BME280;42885;49.754;18.636;2023-04-01T13:18:03;96754.77;;;16.00;83.25
56992;BME280;42885;49.754;18.636;2023-04-01T13:26:30;96745.62;;;17.76;67.16
56992;BME280;42885;49.754;18.636;2023-04-01T13:29:14;96753.80;;;17.34;69.82
56992;BME280;42885;49.754;18.636;2023-04-01T13:34:56;96753.33;;;16.78;69.79
56992;BME280;42885;49.754;18.636;2023-04-01T13:40:39;96755.83;;;16.68;69.66
56992;BME280;42885;49.754;18.636;2023-04-01T13:46:15;96743.62;;;21.69;50.02
56992;BME280;42885;49.754;18.636;2023-04-01T13:54:21;96761.97;;;16.60;66.38
56992;BME280;42885;49.754;18.636;2023-04-01T14:11:33;96762.99;;;18.90;58.35
56992;BME280;42885;49.754;18.636;2023-04-01T14:14:31;96764.59;;;19.25;57.00
56992;BME280;42885;49.754;18.636;2023-04-01T14:20:20;96752.42;;;25.47;41.24
56992;BME280;42885;49.754;18.636;2023-04-01T14:23:05;96750.11;;;25.60;39.30
56992;BME280;42885;49.754;18.636;2023-04-01T14:28:49;96746.53;;;27.86;35.21
56992;BME280;42885;49.754;18.636;2023-04-01T14:31:30;96764.89;;;27.75;34.63
56992;BME280;42885;49.754;18.636;2023-04-01T14:37:05;96744.10;;;28.34;30.57
56992;BME280;42885;49.754;18.636;2023-04-01T14:39:56;96744.10;;;28.34;30.57
56992;BME280;42885;49.754;18.636;2023-04-01T14:45:39;96753.92;;;24.43;35.58
56992;BME280;42885;49.754;18.636;2023-04-01T14:48:25;96753.92;;;24.43;35.58
56992;BME280;42885;49.754;18.636;2023-04-01T14:51:02;96753.03;;;25.02;35.15
56992;BME280;42885;49.754;18.636;2023-04-01T14:53:35;96750.94;;;24.00;36.14
56992;BME280;42885;49.754;18.636;2023-04-01T14:56:09;96762.83;;;22.83;38.13
56992;BME280;42885;49.754;18.636;2023-04-01T15:01:36;96762.52;;;20.73;42.85
56992;BME280;42885;49.754;18.636;2023-04-01T15:07:21;96757.34;;;20.47;43.17
56992;BME280;42885;49.754;18.636;2023-04-01T15:12:54;96767.80;;;18.90;48.66
56992;BME280;42885;49.754;18.636;2023-04-01T15:24:24;96768.17;;;17.64;52.04
56992;BME280;42885;49.754;18.636;2023-04-01T15:30:09;96772.31;;;17.34;52.69
56992;BME280;42885;49.754;18.636;2023-04-01T15:41:24;96765.65;;;17.98;51.01
56992;BME280;42885;49.754;18.636;2023-04-01T15:43:55;96774.67;;;17.84;52.15
56992;BME280;42885;49.754;18.636;2023-04-01T15:46:43;96778.31;;;17.24;53.59
56992;BME280;42885;49.754;18.636;2023-04-01T15:49:19;96778.31;;;17.56;53.81
56992;BME280;42885;49.754;18.636;2023-04-01T15:52:03;96779.83;;;17.14;55.05
56992;BME280;42885;49.754;18.636;2023-04-01T16:00:21;96800.60;;;16.57;57.95
56992;BME280;42885;49.754;18.636;2023-04-01T16:03:17;96801.23;;;16.63;59.01
56992;BME280;42885;49.754;18.636;2023-04-01T16:06:11;96805.88;;;16.65;59.13
56992;BME280;42885;49.754;18.636;2023-04-01T16:12:04;96811.61;;;16.81;59.41
56992;BME280;42885;49.754;18.636;2023-04-01T16:18:00;96819.57;;;16.69;62.02
56992;BME280;42885;49.754;18.636;2023-04-01T16:20:49;96812.80;;;16.45;64.10
56992;BME280;42885;49.754;18.636;2023-04-01T16:31:57;96841.82;;;15.91;70.14
56992;BME280;42885;49.754;18.636;2023-04-01T16:34:39;96839.86;;;16.10;69.59
56992;BME280;42885;49.754;18.636;2023-04-01T16:40:36;96855.72;;;15.63;72.67
56992;BME280;42885;49.754;18.636;2023-04-01T16:43:28;96855.55;;;15.64;72.59
56992;BME280;42885;49.754;18.636;2023-04-01T16:51:23;96874.99;;;15.63;73.81
56992;BME280;42885;49.754;18.636;2023-04-01T16:59:47;96881.88;;;15.52;76.65
56992;BME280;42885;49.754;18.636;2023-04-01T17:02:29;96878.47;;;15.29;78.25
56992;BME280;42885;49.754;18.636;2023-04-01T17:05:00;96892.36;;;15.39;78.56
56992;BME280;42885;49.754;18.636;2023-04-01T17:07:44;96896.16;;;15.37;79.56
56992;BME280;42885;49.754;18.636;2023-04-01T17:10:47;96905.16;;;15.30;79.83
56992;BME280;42885;49.754;18.636;2023-04-01T17:13:25;96913.81;;;15.45;80.25
56992;BME280;42885;49.754;18.636;2023-04-01T17:32:51;96939.23;;;15.54;82.79
56992;BME280;42885;49.754;18.636;2023-04-01T17:35:32;96937.69;;;15.78;80.87
56992;BME280;42885;49.754;18.636;2023-04-01T17:38:26;96945.34;;;15.54;81.02
56992;BME280;42885;49.754;18.636;2023-04-01T17:41:08;96948.78;;;15.55;81.69
56992;BME280;42885;49.754;18.636;2023-04-01T17:43:51;96956.03;;;15.49;82.34
56992;BME280;42885;49.754;18.636;2023-04-01T17:47:31;96953.02;;;15.44;84.97
56992;BME280;42885;49.754;18.636;2023-04-01T17:52:00;96955.94;;;15.32;88.14
56992;BME280;42885;49.754;18.636;2023-04-01T18:00:03;96969.31;;;15.43;89.84
56992;BME280;42885;49.754;18.636;2023-04-01T18:02:47;96970.77;;;15.37;89.21
56992;BME280;42885;49.754;18.636;2023-04-01T18:08:12;96982.02;;;15.44;89.83
56992;BME280;42885;49.754;18.636;2023-04-01T18:13:44;96993.55;;;16.04;86.33
56992;BME280;42885;49.754;18.636;2023-04-01T18:16:30;96990.55;;;15.37;89.96
56992;BME280;42885;49.754;18.636;2023-04-01T18:27:29;96997.87;;;15.25;93.05
56992;BME280;42885;49.754;18.636;2023-04-01T18:33:04;97003.27;;;15.20;92.51
56992;BME280;42885;49.754;18.636;2023-04-01T18:38:41;97021.72;;;15.20;90.29
56992;BME280;42885;49.754;18.636;2023-04-01T18:41:31;97027.84;;;15.02;91.60
56992;BME280;42885;49.754;18.636;2023-04-01T18:47:03;97033.56;;;14.97;93.76
56992;BME280;42885;49.754;18.636;2023-04-01T18:52:20;97041.61;;;14.96;92.65
56992;BME280;42885;49.754;18.636;2023-04-01T18:58:45;97045.11;;;15.00;93.17
56992;BME280;42885;49.754;18.636;2023-04-01T19:00:45;97045.20;;;14.91;94.17
56992;BME280;42885;49.754;18.636;2023-04-01T19:03:27;97044.05;;;14.93;93.76
56992;BME280;42885;49.754;18.636;2023-04-01T19:06:00;97042.20;;;14.90;94.71
56992;BME280;42885;49.754;18.636;2023-04-01T19:08:35;97051.50;;;14.98;94.06
56992;BME280;42885;49.754;18.636;2023-04-01T19:11:36;97053.99;;;14.99;94.51
56992;BME280;42885;49.754;18.636;2023-04-01T19:14:19;97053.47;;;14.96;94.99
56992;BME280;42885;49.754;18.636;2023-04-01T19:25:47;97064.01;;;15.14;91.41
56992;BME280;42885;49.754;18.636;2023-04-01T19:31:28;97066.69;;;15.00;92.23
56992;BME280;42885;49.754;18.636;2023-04-01T19:42:21;97076.53;;;14.66;97.91
56992;BME280;42885;49.754;18.636;2023-04-01T19:47:34;97085.48;;;14.59;99.55
56992;BME280;42885;49.754;18.636;2023-04-01T19:50:26;97087.20;;;14.64;99.13
56992;BME280;42885;49.754;18.636;2023-04-01T19:52:56;97088.58;;;14.82;95.58
56992;BME280;42885;49.754;18.636;2023-04-01T19:55:43;97091.05;;;14.70;95.19
56992;BME280;42885;49.754;18.636;2023-04-01T19:58:41;97099.37;;;14.75;95.15
56992;BME280;42885;49.754;18.636;2023-04-01T20:01:10;97097.07;;;14.76;94.98
56992;BME280;42885;49.754;18.636;2023-04-01T20:04:03;97102.22;;;14.68;95.64
56992;BME280;42885;49.754;18.636;2023-04-01T20:06:51;97099.39;;;14.65;95.64
56992;BME280;42885;49.754;18.636;2023-04-01T20:09:47;97094.56;;;14.61;94.90
56992;BME280;42885;49.754;18.636;2023-04-01T20:15:03;97094.91;;;14.76;93.70
56992;BME280;42885;49.754;18.636;2023-04-01T20:23:01;97094.81;;;14.53;98.20
56992;BME280;42885;49.754;18.636;2023-04-01T20:25:33;97093.97;;;14.25;100.00
56992;BME280;42885;49.754;18.636;2023-04-01T20:28:21;97093.41;;;13.93;100.00
56992;BME280;42885;49.754;18.636;2023-04-01T20:42:34;97108.89;;;14.48;100.00
56992;BME280;42885;49.754;18.636;2023-04-01T20:50:59;97108.11;;;14.24;100.00
56992;BME280;42885;49.754;18.636;2023-04-01T20:59:54;97107.88;;;14.45;100.00
56992;BME280;42885;49.754;18.636;2023-04-01T21:10:43;97115.96;;;14.20;100.00
56992;BME280;42885;49.754;18.636;2023-04-01T21:16:19;97119.81;;;14.25;100.00
56992;BME280;42885;49.754;18.636;2023-04-01T21:22:05;97120.52;;;14.17;100.00
56992;BME280;42885;49.754;18.636;2023-04-01T21:27:54;97121.06;;;14.21;100.00
56992;BME280;42885;49.754;18.636;2023-04-01T21:42:02;97121.23;;;13.96;100.00